createdAt,value
2022-12-31T16:21:47.804Z,1000.41
2022-12-31T16:22:47.791Z,1000.31
2022-12-31T16:23:47.807Z,1000.26
2022-12-31T16:25:19.845Z,1000.24
2022-12-31T16:25:47.831Z,1000.36
2022-12-31T16:26:47.850Z,1000.33
2022-12-31T16:27:47.858Z,1000.32
2022-12-31T16:28:47.873Z,1000.25
2022-12-31T16:29:52.322Z,1000.31
2022-12-31T16:30:47.958Z,1000.27
2022-12-31T16:31:47.949Z,1000.29
2022-12-31T16:32:47.951Z,1000.28
2022-12-31T16:33:47.932Z,1000.17
2022-12-31T16:34:48.156Z,1000.15
2022-12-31T16:35:47.960Z,1000.17
2022-12-31T16:36:48.228Z,1000.26
2022-12-31T16:37:48.013Z,1000.28
2022-12-31T16:38:48.193Z,1000.29
2022-12-31T16:39:48.185Z,1000.32
2022-12-31T16:40:48.127Z,1000.3
2022-12-31T16:41:48.038Z,1000.25
2022-12-31T16:42:48.062Z,1000.26
2022-12-31T16:43:48.079Z,1000.29
2022-12-31T16:44:48.079Z,1000.29
2022-12-31T16:45:48.103Z,1000.33
2022-12-31T16:46:48.149Z,1000.36
2022-12-31T16:47:48.139Z,1000.25
2022-12-31T16:48:48.135Z,1000.33
2022-12-31T16:49:48.186Z,1000.37
2022-12-31T16:50:48.194Z,1000.36
2022-12-31T16:51:48.172Z,1000.3
2022-12-31T16:52:48.188Z,1000.25
2022-12-31T16:53:48.345Z,1000.36
2022-12-31T16:54:48.235Z,1000.3
2022-12-31T16:55:48.231Z,1000.33
2022-12-31T16:56:48.240Z,1000.31
2022-12-31T16:57:48.272Z,1000.3
2022-12-31T16:58:48.327Z,1000.33
2022-12-31T16:59:48.372Z,1000.3
2022-12-31T17:00:48.333Z,1000.31
2022-12-31T17:01:48.484Z,1000.29
2022-12-31T17:02:48.453Z,1000.3
2022-12-31T17:03:48.348Z,1000.3
2022-12-31T17:04:55.254Z,1000.36
2022-12-31T17:05:48.357Z,1000.31
2022-12-31T17:06:48.372Z,1000.38
2022-12-31T17:07:48.425Z,1000.37
2022-12-31T17:08:48.405Z,1000.41
2022-12-31T17:09:48.437Z,1000.43
2022-12-31T17:10:48.425Z,1000.56
2022-12-31T17:11:48.438Z,1000.59
2022-12-31T17:13:48.669Z,1000.54
2022-12-31T17:14:48.480Z,1000.54
2022-12-31T17:15:48.549Z,1000.54
2022-12-31T17:16:48.516Z,1000.55
2022-12-31T17:17:48.520Z,1000.54
2022-12-31T17:18:48.529Z,1000.53
2022-12-31T17:19:48.545Z,1000.57
2022-12-31T17:20:48.558Z,1000.52
2022-12-31T17:21:48.584Z,1000.51
2022-12-31T17:22:48.580Z,1000.51
2022-12-31T17:23:48.597Z,1000.45
2022-12-31T17:24:48.609Z,1000.52
2022-12-31T17:25:48.654Z,1000.45
2022-12-31T17:26:48.646Z,1000.35
2022-12-31T17:27:48.653Z,1000.34
2022-12-31T17:28:48.664Z,1000.43
2022-12-31T17:29:48.676Z,1000.49
2022-12-31T17:30:48.689Z,1000.47
2022-12-31T17:31:48.751Z,1000.52
2022-12-31T17:32:48.712Z,1000.28
2022-12-31T17:33:48.729Z,1000.4
2022-12-31T17:34:48.739Z,1000.4
2022-12-31T17:35:48.754Z,1000.37
2022-12-31T17:36:48.769Z,1000.39
2022-12-31T17:37:48.782Z,1000.39
2022-12-31T17:38:48.888Z,1000.41
2022-12-31T17:39:48.804Z,1000.37
2022-12-31T17:40:51.823Z,1000.4
2022-12-31T17:41:50.417Z,1000.42
2022-12-31T17:42:50.411Z,1000.34
2022-12-31T17:43:50.420Z,1000.44
2022-12-31T17:44:50.448Z,1000.42
2022-12-31T17:45:50.447Z,1000.37
2022-12-31T17:46:50.528Z,1000.36
2022-12-31T17:47:50.512Z,1000.39
2022-12-31T17:48:50.540Z,1000.35
2022-12-31T17:49:50.500Z,1000.33
2022-12-31T17:50:50.528Z,1000.28
2022-12-31T17:51:50.530Z,1000.3
2022-12-31T17:52:50.534Z,1000.27
2022-12-31T17:53:50.569Z,1000.31
2022-12-31T17:54:50.572Z,1000.26
2022-12-31T17:55:50.574Z,1000.32
2022-12-31T17:56:50.620Z,1000.34
2022-12-31T17:57:50.616Z,1000.35
2022-12-31T17:58:50.653Z,1000.36
2022-12-31T17:59:51.238Z,1000.28
2022-12-31T18:00:50.855Z,1000.28
2022-12-31T18:01:51.181Z,1000.32
2022-12-31T18:02:51.151Z,1000.33
